A80 TRACON Summary / KATL TAF
ATL TRACON Summary:
Expect LIFR conditions with TWRINC impacts through at least 13z with graually improvement thereafter through 15z. Surface winds will be south-southwest at 5-8kts then increasing to around 8-10 knots after 15z. Afternoon winds will gust as high as 17 to 20kts. Flight Hazards in the TRACON airspace: LLWS is possible. Light to mod turbulence below 120 possible through the period.

Updated:3/4/2015 6:39 AM
ATL Terminal Aerodrome Forecast:

FTUS80 KATL 041354 AAA
KATL 041353Z 0414/0518 21006KT 1SM BR BKN003
     FM041500 22008KT 3SM BR BKN007 OVC012
     FM041700 22010KT P6SM BKN012
     FM042000 22010G17KT P6SM SCT012 BKN025
     FM050200 20008KT P6SM BKN012
     FM050600 23007KT 4SM SHRA BR OVC006
ATL TRACON Area Remark:
None.
Convective Gate Forecast / Icing Gate Forecast / Vertical Wind Profile (click on image to enlarge)
Convective Gate Forecast
Icing Gate Forecast
table with gate forecasts (convective and CCFP) used April - November while icing gate forecasts are issued
AIRMETs & SIGMETS/ Southeast Radar loop / Satellite Image (click on image to enlarge)

Southeast Radar Loop

 



USA.gov is the U.S. government's official web portal to all federal, state and local government web resources and services.